Terminal Aerodrome Forecast
Issued by NWS Louisville, KY

Home | Current Version | Previous Version | Text Only | Print | Product List | Glossary On
Versions: 1 2 3 4 5 6 7 8 9 10 11 12 13 14 15 16 17
000
FTUS43 KLMK 300700 AAA
TAFLEX
TAF AMD
KLEX 300743Z 3008/0106 22005KT 4SM BR SCT250
      TEMPO 3010/3013 2SM BR
     FM301400 23010KT P6SM FEW040 SCT250
     FM301700 24010G15KT P6SM VCTS SCT040CB BKN250
     FM010100 20005KT P6SM FEW050 SCT250=

USA.gov is the U.S. government's official web portal to all federal, state and local government web resources and services.